sensor_id;sensor_type;location;lat;lon;timestamp;temperature;humidity
54461;DHT22;40371;49.414;11.010;2023-03-23T00:01:18;11.70;99.90
54461;DHT22;40371;49.414;11.010;2023-03-23T00:03:49;11.60;99.90
54461;DHT22;40371;49.414;11.010;2023-03-23T00:06:16;11.70;99.90
54461;DHT22;40371;49.414;11.010;2023-03-23T00:08:47;11.70;99.90
54461;DHT22;40371;49.414;11.010;2023-03-23T00:11:19;11.60;99.90
54461;DHT22;40371;49.414;11.010;2023-03-23T00:13:46;11.20;99.90
54461;DHT22;40371;49.414;11.010;2023-03-23T00:16:13;11.00;99.90
54461;DHT22;40371;49.414;11.010;2023-03-23T00:18:46;10.70;99.90
54461;DHT22;40371;49.414;11.010;2023-03-23T00:21:12;10.90;99.90
54461;DHT22;40371;49.414;11.010;2023-03-23T00:23:38;11.20;99.90
54461;DHT22;40371;49.414;11.010;2023-03-23T00:26:04;11.00;99.90
54461;DHT22;40371;49.414;11.010;2023-03-23T00:28:30;10.70;99.90
54461;DHT22;40371;49.414;11.010;2023-03-23T00:30:57;10.70;99.90
54461;DHT22;40371;49.414;11.010;2023-03-23T00:33:29;10.60;99.90
54461;DHT22;40371;49.414;11.010;2023-03-23T00:35:55;10.80;99.90
54461;DHT22;40371;49.414;11.010;2023-03-23T00:38:23;10.70;99.90
54461;DHT22;40371;49.414;11.010;2023-03-23T00:40:49;10.40;99.90
54461;DHT22;40371;49.414;11.010;2023-03-23T00:43:16;10.70;99.90
54461;DHT22;40371;49.414;11.010;2023-03-23T00:45:43;10.50;99.90
54461;DHT22;40371;49.414;11.010;2023-03-23T00:48:19;10.50;99.90
54461;DHT22;40371;49.414;11.010;2023-03-23T00:50:45;10.70;99.90
54461;DHT22;40371;49.414;11.010;2023-03-23T00:53:11;11.00;99.90
54461;DHT22;40371;49.414;11.010;2023-03-23T00:55:36;10.80;99.90
54461;DHT22;40371;49.414;11.010;2023-03-23T00:58:02;10.80;99.90
54461;DHT22;40371;49.414;11.010;2023-03-23T01:00:28;10.90;99.90
54461;DHT22;40371;49.414;11.010;2023-03-23T01:02:54;11.20;99.90
54461;DHT22;40371;49.414;11.010;2023-03-23T01:05:19;11.40;99.90
54461;DHT22;40371;49.414;11.010;2023-03-23T01:07:46;11.60;99.90
54461;DHT22;40371;49.414;11.010;2023-03-23T01:10:12;11.70;99.90
54461;DHT22;40371;49.414;11.010;2023-03-23T01:12:43;11.80;99.90
54461;DHT22;40371;49.414;11.010;2023-03-23T01:15:13;11.90;99.90
54461;DHT22;40371;49.414;11.010;2023-03-23T01:17:40;12.00;99.90
54461;DHT22;40371;49.414;11.010;2023-03-23T01:20:06;12.20;99.90
54461;DHT22;40371;49.414;11.010;2023-03-23T01:22:32;12.20;99.90
54461;DHT22;40371;49.414;11.010;2023-03-23T01:24:58;12.30;99.90
54461;DHT22;40371;49.414;11.010;2023-03-23T01:27:23;12.30;99.90
54461;DHT22;40371;49.414;11.010;2023-03-23T01:29:49;12.40;99.90
54461;DHT22;40371;49.414;11.010;2023-03-23T01:32:14;12.40;99.90
54461;DHT22;40371;49.414;11.010;2023-03-23T01:34:40;12.10;99.90
54461;DHT22;40371;49.414;11.010;2023-03-23T01:37:06;12.10;99.90
54461;DHT22;40371;49.414;11.010;2023-03-23T01:39:32;12.20;99.90
54461;DHT22;40371;49.414;11.010;2023-03-23T01:41:57;12.10;99.90
54461;DHT22;40371;49.414;11.010;2023-03-23T01:46:56;12.40;99.90
54461;DHT22;40371;49.414;11.010;2023-03-23T01:49:35;12.50;99.90
54461;DHT22;40371;49.414;11.010;2023-03-23T01:52:09;12.60;99.90
54461;DHT22;40371;49.414;11.010;2023-03-23T01:54:37;12.70;99.90
54461;DHT22;40371;49.414;11.010;2023-03-23T01:57:06;12.80;99.90
54461;DHT22;40371;49.414;11.010;2023-03-23T01:59:34;12.80;99.90
54461;DHT22;40371;49.414;11.010;2023-03-23T02:02:14;12.90;99.90
54461;DHT22;40371;49.414;11.010;2023-03-23T02:04:41;12.90;99.90
54461;DHT22;40371;49.414;11.010;2023-03-23T02:07:08;12.90;99.90
54461;DHT22;40371;49.414;11.010;2023-03-23T02:09:34;12.80;99.90
54461;DHT22;40371;49.414;11.010;2023-03-23T02:12:00;12.80;99.90
54461;DHT22;40371;49.414;11.010;2023-03-23T02:14:27;12.80;99.90
54461;DHT22;40371;49.414;11.010;2023-03-23T02:16:59;12.70;99.90
54461;DHT22;40371;49.414;11.010;2023-03-23T02:28:13;12.10;99.90
54461;DHT22;40371;49.414;11.010;2023-03-23T02:31:05;12.10;99.90
54461;DHT22;40371;49.414;11.010;2023-03-23T02:36:22;12.20;99.90
54461;DHT22;40371;49.414;11.010;2023-03-23T02:41:20;12.50;99.90
54461;DHT22;40371;49.414;11.010;2023-03-23T02:43:47;12.50;99.90
54461;DHT22;40371;49.414;11.010;2023-03-23T02:46:14;12.50;99.90
54461;DHT22;40371;49.414;11.010;2023-03-23T02:48:42;12.40;99.90
54461;DHT22;40371;49.414;11.010;2023-03-23T02:51:10;12.40;99.90
54461;DHT22;40371;49.414;11.010;2023-03-23T02:53:40;12.20;99.90
54461;DHT22;40371;49.414;11.010;2023-03-23T02:56:09;12.10;99.90
54461;DHT22;40371;49.414;11.010;2023-03-23T02:58:36;12.30;99.90
54461;DHT22;40371;49.414;11.010;2023-03-23T03:03:55;12.20;99.90
54461;DHT22;40371;49.414;11.010;2023-03-23T03:07:01;12.30;99.90
54461;DHT22;40371;49.414;11.010;2023-03-23T03:09:47;12.30;99.90
54461;DHT22;40371;49.414;11.010;2023-03-23T03:14:57;12.40;99.90
54461;DHT22;40371;49.414;11.010;2023-03-23T03:17:26;12.40;99.90
54461;DHT22;40371;49.414;11.010;2023-03-23T03:19:57;12.50;99.90
54461;DHT22;40371;49.414;11.010;2023-03-23T03:22:26;12.40;99.90
54461;DHT22;40371;49.414;11.010;2023-03-23T03:24:56;12.30;99.90
54461;DHT22;40371;49.414;11.010;2023-03-23T03:27:23;12.20;99.90
54461;DHT22;40371;49.414;11.010;2023-03-23T03:30:08;12.20;99.90
54461;DHT22;40371;49.414;11.010;2023-03-23T03:32:41;12.00;99.90
54461;DHT22;40371;49.414;11.010;2023-03-23T03:35:09;11.90;99.90
54461;DHT22;40371;49.414;11.010;2023-03-23T03:37:38;11.80;99.90
54461;DHT22;40371;49.414;11.010;2023-03-23T03:40:11;11.80;99.90
54461;DHT22;40371;49.414;11.010;2023-03-23T03:42:40;11.70;99.90
54461;DHT22;40371;49.414;11.010;2023-03-23T03:45:09;11.80;99.90
54461;DHT22;40371;49.414;11.010;2023-03-23T03:47:35;11.90;99.90
54461;DHT22;40371;49.414;11.010;2023-03-23T03:50:01;12.10;99.90
54461;DHT22;40371;49.414;11.010;2023-03-23T03:52:27;12.10;99.90
54461;DHT22;40371;49.414;11.010;2023-03-23T03:54:54;12.10;99.90
54461;DHT22;40371;49.414;11.010;2023-03-23T03:57:20;12.00;99.90
54461;DHT22;40371;49.414;11.010;2023-03-23T04:00:06;12.00;99.90
54461;DHT22;40371;49.414;11.010;2023-03-23T04:02:45;12.00;99.90
54461;DHT22;40371;49.414;11.010;2023-03-23T04:05:18;11.90;99.90
54461;DHT22;40371;49.414;11.010;2023-03-23T04:07:47;11.90;99.90
54461;DHT22;40371;49.414;11.010;2023-03-23T04:10:18;11.80;99.90
54461;DHT22;40371;49.414;11.010;2023-03-23T04:12:49;11.80;99.90
54461;DHT22;40371;49.414;11.010;2023-03-23T04:15:33;11.80;99.90
54461;DHT22;40371;49.414;11.010;2023-03-23T04:17:59;11.80;99.90
54461;DHT22;40371;49.414;11.010;2023-03-23T04:20:25;11.90;99.90
54461;DHT22;40371;49.414;11.010;2023-03-23T04:22:52;11.80;99.90
54461;DHT22;40371;49.414;11.010;2023-03-23T04:25:21;11.90;99.90
54461;DHT22;40371;49.414;11.010;2023-03-23T04:27:49;11.80;99.90
54461;DHT22;40371;49.414;11.010;2023-03-23T04:30:24;12.00;99.90
54461;DHT22;40371;49.414;11.010;2023-03-23T04:33:16;12.10;99.90
54461;DHT22;40371;49.414;11.010;2023-03-23T04:35:46;12.00;99.90
54461;DHT22;40371;49.414;11.010;2023-03-23T04:38:20;12.00;99.90
54461;DHT22;40371;49.414;11.010;2023-03-23T04:40:52;11.80;99.90
54461;DHT22;40371;49.414;11.010;2023-03-23T04:43:30;11.90;99.90
54461;DHT22;40371;49.414;11.010;2023-03-23T04:46:03;12.00;99.90
54461;DHT22;40371;49.414;11.010;2023-03-23T04:48:34;12.00;99.90
54461;DHT22;40371;49.414;11.010;2023-03-23T04:51:08;11.90;99.90
54461;DHT22;40371;49.414;11.010;2023-03-23T04:53:35;11.90;99.90
54461;DHT22;40371;49.414;11.010;2023-03-23T04:56:01;11.90;99.90
54461;DHT22;40371;49.414;11.010;2023-03-23T04:58:31;11.90;99.90
54461;DHT22;40371;49.414;11.010;2023-03-23T05:01:22;12.00;99.90
54461;DHT22;40371;49.414;11.010;2023-03-23T05:04:02;12.10;99.90
54461;DHT22;40371;49.414;11.010;2023-03-23T05:06:29;12.20;99.90
54461;DHT22;40371;49.414;11.010;2023-03-23T05:09:00;12.20;99.90
54461;DHT22;40371;49.414;11.010;2023-03-23T05:11:26;12.20;99.90
54461;DHT22;40371;49.414;11.010;2023-03-23T05:13:52;12.20;99.90
54461;DHT22;40371;49.414;11.010;2023-03-23T05:16:17;12.10;99.90
54461;DHT22;40371;49.414;11.010;2023-03-23T05:18:43;11.90;99.90
54461;DHT22;40371;49.414;11.010;2023-03-23T05:21:15;11.90;99.90
54461;DHT22;40371;49.414;11.010;2023-03-23T05:23:44;11.90;99.90
54461;DHT22;40371;49.414;11.010;2023-03-23T05:26:16;11.80;99.90
54461;DHT22;40371;49.414;11.010;2023-03-23T05:28:42;11.90;99.90
54461;DHT22;40371;49.414;11.010;2023-03-23T05:31:19;11.90;99.90
54461;DHT22;40371;49.414;11.010;2023-03-23T05:33:44;11.80;99.90
54461;DHT22;40371;49.414;11.010;2023-03-23T05:36:43;11.70;99.90
54461;DHT22;40371;49.414;11.010;2023-03-23T05:39:23;12.10;99.90
54461;DHT22;40371;49.414;11.010;2023-03-23T05:42:03;11.90;99.90
54461;DHT22;40371;49.414;11.010;2023-03-23T05:44:40;11.90;99.90
54461;DHT22;40371;49.414;11.010;2023-03-23T05:47:06;11.90;99.90
54461;DHT22;40371;49.414;11.010;2023-03-23T05:49:32;12.00;99.90
54461;DHT22;40371;49.414;11.010;2023-03-23T05:51:58;12.00;99.90
54461;DHT22;40371;49.414;11.010;2023-03-23T05:54:26;12.10;99.90
54461;DHT22;40371;49.414;11.010;2023-03-23T05:56:52;12.10;99.90
54461;DHT22;40371;49.414;11.010;2023-03-23T05:59:35;12.20;99.90
54461;DHT22;40371;49.414;11.010;2023-03-23T06:02:03;12.40;99.90
54461;DHT22;40371;49.414;11.010;2023-03-23T06:04:28;12.50;99.90
54461;DHT22;40371;49.414;11.010;2023-03-23T06:07:04;12.60;99.90
54461;DHT22;40371;49.414;11.010;2023-03-23T06:09:30;12.70;99.90
54461;DHT22;40371;49.414;11.010;2023-03-23T06:12:31;12.80;99.90
54461;DHT22;40371;49.414;11.010;2023-03-23T06:15:20;12.80;99.90
54461;DHT22;40371;49.414;11.010;2023-03-23T06:18:11;13.00;99.90
54461;DHT22;40371;49.414;11.010;2023-03-23T06:20:56;13.10;99.90
54461;DHT22;40371;49.414;11.010;2023-03-23T06:23:45;13.30;99.90
54461;DHT22;40371;49.414;11.010;2023-03-23T06:26:14;13.40;99.90
54461;DHT22;40371;49.414;11.010;2023-03-23T06:28:42;13.50;99.90
54461;DHT22;40371;49.414;11.010;2023-03-23T06:31:08;13.50;99.90
54461;DHT22;40371;49.414;11.010;2023-03-23T06:33:36;13.40;99.90
54461;DHT22;40371;49.414;11.010;2023-03-23T06:36:35;13.50;99.90
54461;DHT22;40371;49.414;11.010;2023-03-23T06:39:29;13.50;99.90
54461;DHT22;40371;49.414;11.010;2023-03-23T06:42:12;13.50;99.90
54461;DHT22;40371;49.414;11.010;2023-03-23T06:44:42;13.50;99.90
54461;DHT22;40371;49.414;11.010;2023-03-23T06:47:10;13.60;99.90
54461;DHT22;40371;49.414;11.010;2023-03-23T06:49:41;13.60;99.90
54461;DHT22;40371;49.414;11.010;2023-03-23T06:52:24;13.60;99.90
54461;DHT22;40371;49.414;11.010;2023-03-23T06:54:51;13.70;99.90
54461;DHT22;40371;49.414;11.010;2023-03-23T06:57:19;13.80;99.90
54461;DHT22;40371;49.414;11.010;2023-03-23T06:59:47;13.70;99.90
54461;DHT22;40371;49.414;11.010;2023-03-23T07:02:13;13.80;99.90
54461;DHT22;40371;49.414;11.010;2023-03-23T07:04:40;13.80;99.90
54461;DHT22;40371;49.414;11.010;2023-03-23T07:07:11;14.00;99.90
54461;DHT22;40371;49.414;11.010;2023-03-23T07:09:47;14.10;99.90
54461;DHT22;40371;49.414;11.010;2023-03-23T07:12:15;14.20;99.90
54461;DHT22;40371;49.414;11.010;2023-03-23T07:14:46;14.30;99.90
54461;DHT22;40371;49.414;11.010;2023-03-23T07:17:12;14.40;99.90
54461;DHT22;40371;49.414;11.010;2023-03-23T07:19:45;14.40;99.90
54461;DHT22;40371;49.414;11.010;2023-03-23T07:22:13;14.40;99.90
54461;DHT22;40371;49.414;11.010;2023-03-23T07:24:42;14.50;99.90
54461;DHT22;40371;49.414;11.010;2023-03-23T07:27:17;14.60;99.90
54461;DHT22;40371;49.414;11.010;2023-03-23T07:29:43;14.60;99.90
54461;DHT22;40371;49.414;11.010;2023-03-23T07:32:15;14.60;99.90
54461;DHT22;40371;49.414;11.010;2023-03-23T07:34:41;14.80;99.90
54461;DHT22;40371;49.414;11.010;2023-03-23T07:37:26;14.60;99.90
54461;DHT22;40371;49.414;11.010;2023-03-23T07:39:51;14.60;99.90
54461;DHT22;40371;49.414;11.010;2023-03-23T07:42:17;14.70;99.90
54461;DHT22;40371;49.414;11.010;2023-03-23T07:44:49;14.70;99.90
54461;DHT22;40371;49.414;11.010;2023-03-23T07:47:15;14.70;99.90
54461;DHT22;40371;49.414;11.010;2023-03-23T07:49:43;14.70;99.90
54461;DHT22;40371;49.414;11.010;2023-03-23T07:52:21;14.90;99.90
54461;DHT22;40371;49.414;11.010;2023-03-23T07:54:47;15.00;99.90
54461;DHT22;40371;49.414;11.010;2023-03-23T07:57:22;14.90;99.90
54461;DHT22;40371;49.414;11.010;2023-03-23T07:59:51;15.00;99.90
54461;DHT22;40371;49.414;11.010;2023-03-23T08:02:17;15.00;99.90
54461;DHT22;40371;49.414;11.010;2023-03-23T08:05:01;15.10;99.90
54461;DHT22;40371;49.414;11.010;2023-03-23T08:07:41;14.90;99.90
54461;DHT22;40371;49.414;11.010;2023-03-23T08:10:16;15.10;99.90
54461;DHT22;40371;49.414;11.010;2023-03-23T08:13:02;15.20;99.90
54461;DHT22;40371;49.414;11.010;2023-03-23T08:15:47;15.00;99.90
54461;DHT22;40371;49.414;11.010;2023-03-23T08:18:41;15.20;99.90
54461;DHT22;40371;49.414;11.010;2023-03-23T08:21:22;15.00;99.90
54461;DHT22;40371;49.414;11.010;2023-03-23T08:24:18;15.10;99.90
54461;DHT22;40371;49.414;11.010;2023-03-23T08:27:03;15.10;99.90
54461;DHT22;40371;49.414;11.010;2023-03-23T08:29:45;15.10;99.90
54461;DHT22;40371;49.414;11.010;2023-03-23T08:32:30;15.00;99.90
54461;DHT22;40371;49.414;11.010;2023-03-23T08:35:15;14.90;99.90
54461;DHT22;40371;49.414;11.010;2023-03-23T08:37:56;14.80;99.90
54461;DHT22;40371;49.414;11.010;2023-03-23T08:40:42;14.70;99.90
54461;DHT22;40371;49.414;11.010;2023-03-23T08:43:27;14.60;99.90
54461;DHT22;40371;49.414;11.010;2023-03-23T08:46:28;14.80;99.90
54461;DHT22;40371;49.414;11.010;2023-03-23T08:49:13;14.80;99.90
54461;DHT22;40371;49.414;11.010;2023-03-23T08:52:04;14.80;99.90
54461;DHT22;40371;49.414;11.010;2023-03-23T08:54:52;14.90;99.90
54461;DHT22;40371;49.414;11.010;2023-03-23T08:57:56;15.10;99.90
54461;DHT22;40371;49.414;11.010;2023-03-23T09:00:43;15.20;99.90
54461;DHT22;40371;49.414;11.010;2023-03-23T09:03:15;15.30;99.90
54461;DHT22;40371;49.414;11.010;2023-03-23T09:06:04;15.30;99.90
54461;DHT22;40371;49.414;11.010;2023-03-23T09:08:36;15.40;99.90
54461;DHT22;40371;49.414;11.010;2023-03-23T09:11:07;15.40;99.90
54461;DHT22;40371;49.414;11.010;2023-03-23T09:13:33;15.40;99.90
54461;DHT22;40371;49.414;11.010;2023-03-23T09:15:59;15.40;99.90
54461;DHT22;40371;49.414;11.010;2023-03-23T09:18:25;15.40;99.90
54461;DHT22;40371;49.414;11.010;2023-03-23T09:20:53;15.40;99.90
54461;DHT22;40371;49.414;11.010;2023-03-23T09:23:19;15.70;99.90
54461;DHT22;40371;49.414;11.010;2023-03-23T09:25:46;15.50;99.90
54461;DHT22;40371;49.414;11.010;2023-03-23T09:28:13;15.60;99.90
54461;DHT22;40371;49.414;11.010;2023-03-23T09:30:39;15.50;99.90
54461;DHT22;40371;49.414;11.010;2023-03-23T09:33:06;15.50;99.90
54461;DHT22;40371;49.414;11.010;2023-03-23T09:35:34;15.50;99.90
54461;DHT22;40371;49.414;11.010;2023-03-23T09:38:02;15.50;99.90
54461;DHT22;40371;49.414;11.010;2023-03-23T09:40:33;15.60;99.90
54461;DHT22;40371;49.414;11.010;2023-03-23T09:43:16;15.50;99.90
54461;DHT22;40371;49.414;11.010;2023-03-23T09:46:23;15.70;99.90
54461;DHT22;40371;49.414;11.010;2023-03-23T09:48:55;15.80;99.90
54461;DHT22;40371;49.414;11.010;2023-03-23T09:53:59;15.80;99.90
54461;DHT22;40371;49.414;11.010;2023-03-23T09:56:30;15.90;99.90
54461;DHT22;40371;49.414;11.010;2023-03-23T10:01:48;16.30;99.90
54461;DHT22;40371;49.414;11.010;2023-03-23T10:07:00;16.10;99.90
54461;DHT22;40371;49.414;11.010;2023-03-23T10:09:29;16.10;99.90
54461;DHT22;40371;49.414;11.010;2023-03-23T10:17:20;16.10;99.90
54461;DHT22;40371;49.414;11.010;2023-03-23T10:19:53;16.10;99.90
54461;DHT22;40371;49.414;11.010;2023-03-23T10:22:33;16.00;99.90
54461;DHT22;40371;49.414;11.010;2023-03-23T10:28:09;16.00;99.90
54461;DHT22;40371;49.414;11.010;2023-03-23T10:31:05;16.00;99.90
54461;DHT22;40371;49.414;11.010;2023-03-23T10:33:45;15.90;99.90
54461;DHT22;40371;49.414;11.010;2023-03-23T10:36:27;15.70;99.90
54461;DHT22;40371;49.414;11.010;2023-03-23T10:39:05;15.70;99.90
54461;DHT22;40371;49.414;11.010;2023-03-23T10:41:35;15.70;99.90
54461;DHT22;40371;49.414;11.010;2023-03-23T10:44:01;15.80;99.90
54461;DHT22;40371;49.414;11.010;2023-03-23T10:46:51;15.80;99.90
54461;DHT22;40371;49.414;11.010;2023-03-23T10:49:49;15.90;99.90
54461;DHT22;40371;49.414;11.010;2023-03-23T10:52:40;15.80;99.90
54461;DHT22;40371;49.414;11.010;2023-03-23T10:57:38;15.70;99.90
54461;DHT22;40371;49.414;11.010;2023-03-23T11:00:18;15.80;99.90
54461;DHT22;40371;49.414;11.010;2023-03-23T11:02:47;15.70;99.90
54461;DHT22;40371;49.414;11.010;2023-03-23T11:05:25;15.70;99.90
54461;DHT22;40371;49.414;11.010;2023-03-23T11:07:56;15.90;99.90
54461;DHT22;40371;49.414;11.010;2023-03-23T11:10:25;15.90;99.90
54461;DHT22;40371;49.414;11.010;2023-03-23T11:12:53;15.90;99.90
54461;DHT22;40371;49.414;11.010;2023-03-23T11:15:29;15.90;99.90
54461;DHT22;40371;49.414;11.010;2023-03-23T11:17:57;15.80;99.90
54461;DHT22;40371;49.414;11.010;2023-03-23T11:20:25;15.70;99.90
54461;DHT22;40371;49.414;11.010;2023-03-23T11:22:52;15.60;99.90
54461;DHT22;40371;49.414;11.010;2023-03-23T11:25:18;15.50;99.90
54461;DHT22;40371;49.414;11.010;2023-03-23T11:27:44;15.60;99.90
54461;DHT22;40371;49.414;11.010;2023-03-23T11:30:20;15.80;99.90
54461;DHT22;40371;49.414;11.010;2023-03-23T11:32:47;15.70;99.90
54461;DHT22;40371;49.414;11.010;2023-03-23T11:35:26;15.60;99.90
54461;DHT22;40371;49.414;11.010;2023-03-23T11:37:57;15.60;99.90
54461;DHT22;40371;49.414;11.010;2023-03-23T11:40:29;15.60;99.90
54461;DHT22;40371;49.414;11.010;2023-03-23T11:43:07;15.70;99.90
54461;DHT22;40371;49.414;11.010;2023-03-23T11:45:35;15.60;99.90
54461;DHT22;40371;49.414;11.010;2023-03-23T11:50:44;15.70;99.90
54461;DHT22;40371;49.414;11.010;2023-03-23T11:53:33;15.70;99.90
54461;DHT22;40371;49.414;11.010;2023-03-23T11:56:36;15.80;99.90
54461;DHT22;40371;49.414;11.010;2023-03-23T11:59:08;15.60;99.90
54461;DHT22;40371;49.414;11.010;2023-03-23T12:01:55;15.50;99.90
54461;DHT22;40371;49.414;11.010;2023-03-23T12:13:18;15.60;99.90
54461;DHT22;40371;49.414;11.010;2023-03-23T12:16:17;15.60;99.90
54461;DHT22;40371;49.414;11.010;2023-03-23T12:18:58;15.80;99.90
54461;DHT22;40371;49.414;11.010;2023-03-23T12:21:35;16.10;99.90
54461;DHT22;40371;49.414;11.010;2023-03-23T12:24:16;16.10;99.90
54461;DHT22;40371;49.414;11.010;2023-03-23T12:27:00;16.20;99.90
54461;DHT22;40371;49.414;11.010;2023-03-23T12:32:21;16.10;99.90
54461;DHT22;40371;49.414;11.010;2023-03-23T12:40:23;16.30;99.90
54461;DHT22;40371;49.414;11.010;2023-03-23T12:43:03;16.20;99.90
54461;DHT22;40371;49.414;11.010;2023-03-23T12:48:43;16.00;99.90
54461;DHT22;40371;49.414;11.010;2023-03-23T12:51:19;16.20;99.90
54461;DHT22;40371;49.414;11.010;2023-03-23T12:57:01;15.90;99.90
54461;DHT22;40371;49.414;11.010;2023-03-23T13:02:48;16.10;99.90
54461;DHT22;40371;49.414;11.010;2023-03-23T13:08:02;16.20;99.90
54461;DHT22;40371;49.414;11.010;2023-03-23T13:10:36;16.30;99.90
54461;DHT22;40371;49.414;11.010;2023-03-23T13:13:04;16.40;99.90
54461;DHT22;40371;49.414;11.010;2023-03-23T13:18:31;16.50;99.90
54461;DHT22;40371;49.414;11.010;2023-03-23T13:21:05;16.50;99.90
54461;DHT22;40371;49.414;11.010;2023-03-23T13:23:41;16.50;99.90
54461;DHT22;40371;49.414;11.010;2023-03-23T13:26:12;16.50;99.90
54461;DHT22;40371;49.414;11.010;2023-03-23T13:29:00;16.50;99.90
54461;DHT22;40371;49.414;11.010;2023-03-23T13:31:35;16.50;99.90
54461;DHT22;40371;49.414;11.010;2023-03-23T13:34:04;16.30;99.90
54461;DHT22;40371;49.414;11.010;2023-03-23T13:37:00;16.30;99.90
54461;DHT22;40371;49.414;11.010;2023-03-23T13:39:34;16.30;99.90
54461;DHT22;40371;49.414;11.010;2023-03-23T13:50:03;16.70;99.90
54461;DHT22;40371;49.414;11.010;2023-03-23T14:03:12;17.50;99.90
54461;DHT22;40371;49.414;11.010;2023-03-23T14:13:04;17.70;99.90
54461;DHT22;40371;49.414;11.010;2023-03-23T14:15:37;17.80;99.90
54461;DHT22;40371;49.414;11.010;2023-03-23T14:18:03;17.80;99.90
54461;DHT22;40371;49.414;11.010;2023-03-23T14:20:36;17.80;99.90
54461;DHT22;40371;49.414;11.010;2023-03-23T14:23:02;18.00;99.90
54461;DHT22;40371;49.414;11.010;2023-03-23T14:25:30;17.90;99.90
54461;DHT22;40371;49.414;11.010;2023-03-23T14:27:57;17.90;99.90
54461;DHT22;40371;49.414;11.010;2023-03-23T14:30:26;17.90;99.90
54461;DHT22;40371;49.414;11.010;2023-03-23T14:32:54;18.00;99.90
54461;DHT22;40371;49.414;11.010;2023-03-23T14:35:31;17.90;99.90
54461;DHT22;40371;49.414;11.010;2023-03-23T14:37:57;18.10;99.90
54461;DHT22;40371;49.414;11.010;2023-03-23T14:40:26;18.10;99.90
54461;DHT22;40371;49.414;11.010;2023-03-23T14:42:53;18.00;99.90
54461;DHT22;40371;49.414;11.010;2023-03-23T14:45:21;17.90;99.90
54461;DHT22;40371;49.414;11.010;2023-03-23T14:47:53;17.80;99.90
54461;DHT22;40371;49.414;11.010;2023-03-23T14:52:48;17.80;99.90
54461;DHT22;40371;49.414;11.010;2023-03-23T14:55:21;17.70;99.90
54461;DHT22;40371;49.414;11.010;2023-03-23T14:57:48;17.70;99.90
54461;DHT22;40371;49.414;11.010;2023-03-23T15:00:21;17.60;99.90
54461;DHT22;40371;49.414;11.010;2023-03-23T15:02:51;17.70;99.90
54461;DHT22;40371;49.414;11.010;2023-03-23T15:05:33;17.80;99.90
54461;DHT22;40371;49.414;11.010;2023-03-23T15:08:07;17.70;99.90
54461;DHT22;40371;49.414;11.010;2023-03-23T15:10:37;17.70;99.90
54461;DHT22;40371;49.414;11.010;2023-03-23T15:13:02;17.60;99.90
54461;DHT22;40371;49.414;11.010;2023-03-23T15:15:29;17.40;99.90
54461;DHT22;40371;49.414;11.010;2023-03-23T15:17:56;17.30;99.90
54461;DHT22;40371;49.414;11.010;2023-03-23T15:20:24;17.20;99.90
54461;DHT22;40371;49.414;11.010;2023-03-23T15:22:50;17.20;99.90
54461;DHT22;40371;49.414;11.010;2023-03-23T15:25:52;17.10;99.90
54461;DHT22;40371;49.414;11.010;2023-03-23T15:28:21;17.10;99.90
54461;DHT22;40371;49.414;11.010;2023-03-23T15:30:54;17.00;99.90
54461;DHT22;40371;49.414;11.010;2023-03-23T15:33:22;16.90;99.90
54461;DHT22;40371;49.414;11.010;2023-03-23T15:35:52;16.90;99.90
54461;DHT22;40371;49.414;11.010;2023-03-23T15:38:33;16.70;99.90
54461;DHT22;40371;49.414;11.010;2023-03-23T15:41:02;16.60;99.90
54461;DHT22;40371;49.414;11.010;2023-03-23T15:43:35;16.60;99.90
54461;DHT22;40371;49.414;11.010;2023-03-23T15:49:08;16.70;99.90
54461;DHT22;40371;49.414;11.010;2023-03-23T15:51:36;16.60;99.90
54461;DHT22;40371;49.414;11.010;2023-03-23T15:54:03;16.70;99.90
54461;DHT22;40371;49.414;11.010;2023-03-23T15:56:28;16.70;99.90
54461;DHT22;40371;49.414;11.010;2023-03-23T15:58:57;16.70;99.90
54461;DHT22;40371;49.414;11.010;2023-03-23T16:01:26;16.60;99.90
54461;DHT22;40371;49.414;11.010;2023-03-23T16:04:13;16.60;99.90
54461;DHT22;40371;49.414;11.010;2023-03-23T16:06:40;16.50;99.90
54461;DHT22;40371;49.414;11.010;2023-03-23T16:09:07;16.50;99.90
54461;DHT22;40371;49.414;11.010;2023-03-23T16:11:35;16.40;99.90
54461;DHT22;40371;49.414;11.010;2023-03-23T16:14:01;16.50;99.90
54461;DHT22;40371;49.414;11.010;2023-03-23T16:16:45;16.40;99.90
54461;DHT22;40371;49.414;11.010;2023-03-23T16:19:13;16.40;99.90
54461;DHT22;40371;49.414;11.010;2023-03-23T16:21:39;16.40;99.90
54461;DHT22;40371;49.414;11.010;2023-03-23T16:24:05;16.40;99.90
54461;DHT22;40371;49.414;11.010;2023-03-23T16:26:31;16.30;99.90
54461;DHT22;40371;49.414;11.010;2023-03-23T16:28:56;16.30;99.90
54461;DHT22;40371;49.414;11.010;2023-03-23T16:31:22;16.30;99.90
54461;DHT22;40371;49.414;11.010;2023-03-23T16:33:47;16.30;99.90
54461;DHT22;40371;49.414;11.010;2023-03-23T16:36:13;16.30;99.90
54461;DHT22;40371;49.414;11.010;2023-03-23T16:38:40;16.20;99.90
54461;DHT22;40371;49.414;11.010;2023-03-23T16:41:06;16.20;99.90
54461;DHT22;40371;49.414;11.010;2023-03-23T16:43:32;16.10;99.90
54461;DHT22;40371;49.414;11.010;2023-03-23T16:45:58;16.10;99.90
54461;DHT22;40371;49.414;11.010;2023-03-23T16:48:23;16.10;99.90
54461;DHT22;40371;49.414;11.010;2023-03-23T16:50:51;16.00;99.90
54461;DHT22;40371;49.414;11.010;2023-03-23T16:53:19;16.00;99.90
54461;DHT22;40371;49.414;11.010;2023-03-23T16:55:45;16.10;99.90
54461;DHT22;40371;49.414;11.010;2023-03-23T16:58:13;16.00;99.90
54461;DHT22;40371;49.414;11.010;2023-03-23T17:00:39;15.90;99.90
54461;DHT22;40371;49.414;11.010;2023-03-23T17:03:05;15.90;99.90
54461;DHT22;40371;49.414;11.010;2023-03-23T17:05:32;15.90;99.90
54461;DHT22;40371;49.414;11.010;2023-03-23T17:07:59;15.90;99.90
54461;DHT22;40371;49.414;11.010;2023-03-23T17:10:28;15.90;99.90
54461;DHT22;40371;49.414;11.010;2023-03-23T17:12:54;15.90;99.90
54461;DHT22;40371;49.414;11.010;2023-03-23T17:15:20;15.70;99.90
54461;DHT22;40371;49.414;11.010;2023-03-23T17:17:46;15.70;99.90
54461;DHT22;40371;49.414;11.010;2023-03-23T17:20:12;15.60;99.90
54461;DHT22;40371;49.414;11.010;2023-03-23T17:22:38;15.60;99.90
54461;DHT22;40371;49.414;11.010;2023-03-23T17:25:06;15.60;99.90
54461;DHT22;40371;49.414;11.010;2023-03-23T17:27:33;15.40;99.90
54461;DHT22;40371;49.414;11.010;2023-03-23T17:29:59;15.40;99.90
54461;DHT22;40371;49.414;11.010;2023-03-23T17:32:24;15.50;99.90
54461;DHT22;40371;49.414;11.010;2023-03-23T17:34:51;15.50;99.90